Nearby METAR Reports

 

EGQS - Lossiemouth Raf, United Kingdom
Distance from station: NW 60mi, 97km
Updated: 17/09/2019 00:50
Few Clouds
Few Clouds
 Wind from W
Wind: W 18 mph , 30 km/h, Gust: 31 mph , 50 km/h
Temperature: 10°C
Wind Chill: 7°C
Dew Point: 5°C
Humidity: 71%
Barometer: 1020 hPa
Clouds: Few Clouds
Visibility: 6 miles , 10 km
Cloud details: Few Clouds 1219 m
2019/09/16 23:50 EGQS 162350Z 28016G27KT 9999 FEW040 10/05 Q1020 RMK BLU